Time;durP1;ratioP1;P1;durP2;ratioP2;P2;SDS_P1;SDS_P2;PMS_P1;PMS_P2;Temp;Humidity;BMP_temperature;BMP_pressure;BME280_temperature;BME280_humidity;BME280_pressure;Samples;Min_cycle;Max_cycle;Signal;HPM_P1;HPM_P2
2021/01/25 00:00:26;;;;;;;19.27;13.20;;;1.50;91.20;;;;;;4404606;32;20280;-63
2021/01/25 00:02:52;;;;;;;24.17;13.83;;;1.50;91.20;;;;;;4406308;32;20176;-63
2021/01/25 00:05:18;;;;;;;19.97;12.73;;;1.50;91.10;;;;;;4406256;32;20186;-64
2021/01/25 00:07:45;;;;;;;19.37;13.10;;;1.50;91.20;;;;;;4406416;32;20558;-63
2021/01/25 00:10:13;;;;;;;20.13;13.43;;;1.50;91.00;;;;;;4398583;32;20156;-64
2021/01/25 00:12:39;;;;;;;23.67;12.73;;;1.50;91.10;;;;;;4404120;32;20252;-64
2021/01/25 00:15:09;;;;;;;20.20;13.27;;;1.50;90.90;;;;;;4406773;32;20182;-64
2021/01/25 00:17:35;;;;;;;27.97;15.20;;;1.50;91.00;;;;;;4402942;32;20197;-63
2021/01/25 00:20:01;;;;;;;23.30;14.90;;;1.50;90.90;;;;;;4406237;32;20186;-65
2021/01/25 00:22:28;;;;;;;23.70;13.40;;;1.40;90.90;;;;;;4407873;32;20222;-64
2021/01/25 00:24:54;;;;;;;23.77;14.53;;;1.40;91.00;;;;;;4394992;32;20152;-64
2021/01/25 00:27:21;;;;;;;22.13;13.00;;;1.40;91.10;;;;;;4401056;32;20215;-64
2021/01/25 00:29:48;;;;;;;23.13;14.27;;;1.30;91.00;;;;;;4407128;32;20238;-64
2021/01/25 00:32:14;;;;;;;25.87;14.90;;;1.30;91.20;;;;;;4405242;32;20156;-63
2021/01/25 00:34:42;;;;;;;23.93;14.67;;;1.40;91.30;;;;;;4408184;32;20176;-63
2021/01/25 00:37:08;;;;;;;21.67;13.53;;;1.40;91.40;;;;;;4406015;32;20152;-64
2021/01/25 00:39:35;;;;;;;21.93;14.40;;;1.50;91.10;;;;;;4406114;32;20224;-64
2021/01/25 00:42:01;;;;;;;22.83;12.87;;;1.50;90.90;;;;;;4405055;32;20178;-64
2021/01/25 00:44:31;;;;;;;24.30;13.63;;;1.50;90.90;;;;;;4404730;32;20248;-64
2021/01/25 00:46:57;;;;;;;21.47;13.63;;;1.40;91.00;;;;;;4407563;32;20206;-63
2021/01/25 00:49:24;;;;;;;23.23;13.10;;;1.40;90.90;;;;;;4403437;32;20198;-63
2021/01/25 00:51:50;;;;;;;20.80;12.63;;;1.40;91.00;;;;;;4401738;32;20218;-64
2021/01/25 00:54:16;;;;;;;19.70;13.20;;;1.40;91.00;;;;;;4406482;32;20219;-64
2021/01/25 00:56:42;;;;;;;20.23;12.83;;;1.40;91.00;;;;;;4406923;32;20207;-63
2021/01/25 00:59:09;;;;;;;23.03;14.07;;;1.40;91.20;;;;;;4407100;32;20211;-64
2021/01/25 01:01:42;;;;;;;30.37;15.17;;;1.40;91.20;;;;;;4406284;32;20596;-64
2021/01/25 01:04:08;;;;;;;22.67;14.20;;;1.40;91.20;;;;;;4407014;32;20491;-64
2021/01/25 01:06:34;;;;;;;22.47;14.73;;;1.40;91.10;;;;;;4406317;32;20163;-63
2021/01/25 01:09:01;;;;;;;22.67;14.63;;;1.40;91.20;;;;;;4395181;32;20230;-63
2021/01/25 01:11:27;;;;;;;21.77;14.17;;;1.40;91.30;;;;;;4405578;32;20261;-65
2021/01/25 01:13:53;;;;;;;23.87;15.33;;;1.40;91.20;;;;;;4397287;32;20193;-63
2021/01/25 01:16:19;;;;;;;21.37;14.13;;;1.40;91.20;;;;;;4404910;32;20547;-65
2021/01/25 01:18:47;;;;;;;23.63;14.73;;;1.40;91.20;;;;;;4405019;32;20227;-64
2021/01/25 01:21:14;;;;;;;22.63;14.30;;;1.40;91.20;;;;;;4403622;32;20152;-64
2021/01/25 01:23:41;;;;;;;24.60;15.03;;;1.40;91.10;;;;;;4405186;32;20214;-64
2021/01/25 01:26:07;;;;;;;25.13;14.70;;;1.40;91.20;;;;;;4407660;32;20258;-64
2021/01/25 01:28:33;;;;;;;19.17;13.97;;;1.40;91.10;;;;;;4398269;32;20283;-63
2021/01/25 01:30:59;;;;;;;24.70;14.73;;;1.40;91.20;;;;;;4398197;32;20569;-64
2021/01/25 01:33:26;;;;;;;21.47;14.50;;;1.30;91.20;;;;;;4405942;32;20485;-63
2021/01/25 01:35:53;;;;;;;20.97;13.20;;;1.30;91.50;;;;;;4402625;32;20225;-63
2021/01/25 01:38:19;;;;;;;23.90;14.50;;;1.30;91.70;;;;;;4391535;32;22022;-65
2021/01/25 01:40:46;;;;;;;20.87;13.20;;;1.30;91.60;;;;;;4405741;32;20519;-64
2021/01/25 01:43:16;;;;;;;19.37;13.40;;;1.40;91.70;;;;;;4405645;32;20178;-64
2021/01/25 01:45:43;;;;;;;27.00;13.47;;;1.40;91.60;;;;;;4394373;32;20327;-64
2021/01/25 01:48:10;;;;;;;21.83;13.07;;;1.30;91.50;;;;;;4404632;32;20513;-64
2021/01/25 01:50:36;;;;;;;24.00;14.27;;;1.40;91.40;;;;;;4404029;32;20196;-63
2021/01/25 01:53:04;;;;;;;21.83;14.47;;;1.30;91.40;;;;;;4405159;32;20254;-64
2021/01/25 01:55:30;;;;;;;25.70;13.50;;;1.30;91.50;;;;;;4400899;32;20530;-63
2021/01/25 01:57:57;;;;;;;22.93;14.07;;;1.30;91.50;;;;;;4404877;32;20178;-63
2021/01/25 02:00:30;;;;;;;24.00;14.70;;;1.30;91.40;;;;;;4395118;32;20160;-63
2021/01/25 02:02:57;;;;;;;23.37;14.43;;;1.30;91.50;;;;;;4399715;32;20160;-63
2021/01/25 02:05:25;;;;;;;21.37;15.40;;;1.30;91.30;;;;;;4399872;32;20162;-64
2021/01/25 02:07:53;;;;;;;20.33;14.27;;;1.30;91.20;;;;;;4397941;32;20164;-64
2021/01/25 02:10:25;;;;;;;22.27;15.30;;;1.30;91.40;;;;;;4403410;32;20190;-64
2021/01/25 02:12:56;;;;;;;24.57;15.60;;;1.30;91.40;;;;;;4395709;32;20160;-63
2021/01/25 02:15:24;;;;;;;23.97;14.93;;;1.30;91.50;;;;;;4392946;32;20183;-64
2021/01/25 02:17:51;;;;;;;21.00;14.33;;;1.30;91.50;;;;;;4404228;32;20188;-63
2021/01/25 02:20:26;;;;;;;21.60;14.83;;;1.30;91.50;;;;;;4404481;32;20168;-63
2021/01/25 02:23:27;;;;;;;24.83;14.77;;;1.40;91.50;;;;;;4402152;32;20182;-65
2021/01/25 02:26:04;;;;;;;22.47;15.33;;;1.40;91.30;;;;;;4390466;32;20183;-63
2021/01/25 02:28:31;;;;;;;24.97;14.97;;;1.50;91.30;;;;;;4406437;32;20608;-63
2021/01/25 02:31:00;;;;;;;25.67;16.30;;;1.60;91.00;;;;;;4397924;32;20255;-63
2021/01/25 02:33:29;;;;;;;26.13;15.93;;;1.60;90.80;;;;;;4403144;32;20203;-64
2021/01/25 02:35:55;;;;;;;24.90;16.10;;;1.60;90.80;;;;;;4404254;32;20193;-63
2021/01/25 02:38:24;;;;;;;27.00;16.33;;;1.60;90.80;;;;;;4404627;32;20154;-63
2021/01/25 02:40:52;;;;;;;23.97;14.20;;;1.60;91.00;;;;;;4403632;32;20254;-63
2021/01/25 02:43:19;;;;;;;24.63;15.97;;;1.70;90.70;;;;;;4404095;32;20182;-63
2021/01/25 02:45:50;;;;;;;24.67;14.93;;;1.60;90.60;;;;;;4405299;32;20155;-64
2021/01/25 02:48:16;;;;;;;25.33;15.10;;;1.70;90.70;;;;;;4401791;32;20152;-65
2021/01/25 02:50:49;;;;;;;21.00;14.80;;;1.70;90.60;;;;;;4402633;32;20176;-64
2021/01/25 02:53:16;;;;;;;20.30;13.87;;;1.70;90.70;;;;;;4396409;32;20221;-63
2021/01/25 02:55:42;;;;;;;21.57;14.40;;;1.70;90.60;;;;;;4403233;32;20151;-63
2021/01/25 02:58:13;;;;;;;23.07;15.70;;;1.70;90.60;;;;;;4406108;32;20492;-63
2021/01/25 03:00:40;;;;;;;21.73;13.90;;;1.70;90.60;;;;;;4404468;32;20204;-63
2021/01/25 03:03:08;;;;;;;20.53;14.30;;;1.60;90.60;;;;;;4404866;32;20204;-62
2021/01/25 03:05:35;;;;;;;22.27;14.73;;;1.60;90.70;;;;;;4405071;32;20179;-63
2021/01/25 03:08:03;;;;;;;22.90;14.67;;;1.50;90.90;;;;;;4404971;32;20182;-63
2021/01/25 03:10:29;;;;;;;21.40;13.97;;;1.60;91.00;;;;;;4404250;32;20187;-63
2021/01/25 03:13:00;;;;;;;23.27;15.73;;;1.50;91.00;;;;;;4392887;32;20497;-63
2021/01/25 03:15:27;;;;;;;21.20;14.83;;;1.50;91.00;;;;;;4238974;32;5261130;-63
2021/01/25 03:17:57;;;;;;;21.33;14.53;;;1.60;91.10;;;;;;4400627;32;20285;-63
2021/01/25 03:20:26;;;;;;;22.37;14.83;;;1.50;91.00;;;;;;4402654;32;20198;-63
2021/01/25 03:22:52;;;;;;;24.33;15.97;;;1.50;91.20;;;;;;4404420;32;20174;-63
2021/01/25 03:25:18;;;;;;;25.07;15.17;;;1.50;91.10;;;;;;4405614;32;20246;-63
2021/01/25 03:27:44;;;;;;;23.63;16.20;;;1.50;91.20;;;;;;4406989;32;20191;-63
2021/01/25 03:30:14;;;;;;;21.70;15.03;;;1.40;91.00;;;;;;4405966;32;20709;-63
2021/01/25 03:32:43;;;;;;;23.60;15.77;;;1.40;90.90;;;;;;4395812;32;20207;-63
2021/01/25 03:35:13;;;;;;;22.80;16.13;;;1.40;91.00;;;;;;4402416;32;20176;-62
2021/01/25 03:37:40;;;;;;;26.73;16.77;;;1.40;91.10;;;;;;4408429;32;20548;-63
2021/01/25 03:40:08;;;;;;;25.57;16.53;;;1.30;91.30;;;;;;4394745;32;20246;-63
2021/01/25 03:42:35;;;;;;;28.00;15.93;;;1.30;91.10;;;;;;4402793;32;20171;-63
2021/01/25 03:45:06;;;;;;;24.47;16.23;;;1.30;91.20;;;;;;4406865;32;20223;-63
2021/01/25 03:47:32;;;;;;;24.83;16.27;;;1.20;91.40;;;;;;4398849;32;20220;-63
2021/01/25 03:49:59;;;;;;;26.80;16.73;;;1.20;91.40;;;;;;4407867;32;20269;-63
2021/01/25 03:52:25;;;;;;;26.30;16.17;;;1.20;91.40;;;;;;4403464;32;20239;-63
2021/01/25 03:54:52;;;;;;;25.17;16.43;;;1.10;91.30;;;;;;4400983;32;20211;-63
2021/01/25 03:57:19;;;;;;;28.77;18.03;;;1.10;91.40;;;;;;4406500;32;20607;-63
2021/01/25 03:59:45;;;;;;;25.90;17.43;;;1.00;91.50;;;;;;4407622;32;20248;-63
2021/01/25 04:02:13;;;;;;;28.00;17.93;;;0.90;91.60;;;;;;4406632;32;20229;-63
2021/01/25 04:04:39;;;;;;;26.53;16.93;;;0.90;91.70;;;;;;4400283;32;20213;-63
2021/01/25 04:07:05;;;;;;;27.00;17.43;;;0.80;91.90;;;;;;4400780;32;20211;-63
2021/01/25 04:09:32;;;;;;;30.57;16.83;;;0.80;91.90;;;;;;4406514;32;20211;-64
2021/01/25 04:11:59;;;;;;;28.63;18.60;;;0.80;92.00;;;;;;4406864;32;20221;-64
2021/01/25 04:14:25;;;;;;;30.53;18.70;;;0.80;92.30;;;;;;4397823;32;20534;-63
2021/01/25 04:16:51;;;;;;;31.13;18.97;;;0.80;92.30;;;;;;4405825;32;20228;-63
2021/01/25 04:19:18;;;;;;;27.73;17.50;;;0.80;92.30;;;;;;4406350;32;20195;-63
2021/01/25 04:21:44;;;;;;;28.67;19.23;;;0.80;92.20;;;;;;4404953;32;20175;-63
2021/01/25 04:24:10;;;;;;;24.80;16.57;;;0.70;92.20;;;;;;4402336;32;20159;-63
2021/01/25 04:26:41;;;;;;;31.07;19.33;;;0.70;92.20;;;;;;4391660;32;20250;-64
2021/01/25 04:29:09;;;;;;;32.67;18.30;;;0.70;92.20;;;;;;4400012;32;20515;-66
2021/01/25 04:31:36;;;;;;;32.00;19.43;;;0.70;92.20;;;;;;4403665;32;20195;-63
2021/01/25 04:34:02;;;;;;;27.97;18.50;;;0.70;92.40;;;;;;4404991;32;20207;-64
2021/01/25 04:36:28;;;;;;;31.53;19.97;;;0.80;92.40;;;;;;4406392;32;20164;-64
2021/01/25 04:38:55;;;;;;;30.83;18.53;;;0.80;92.30;;;;;;4404732;32;20227;-64
2021/01/25 04:41:21;;;;;;;28.53;19.77;;;0.80;92.20;;;;;;4406302;32;20152;-63
2021/01/25 04:43:49;;;;;;;28.57;17.93;;;0.80;92.00;;;;;;4395130;32;20241;-63
2021/01/25 04:46:16;;;;;;;32.40;19.93;;;0.80;92.10;;;;;;4405838;32;20491;-65
2021/01/25 04:48:48;;;;;;;25.17;17.43;;;0.80;92.30;;;;;;4395935;32;21922;-63
2021/01/25 04:51:14;;;;;;;30.07;19.33;;;0.80;91.90;;;;;;4404042;32;20203;-64
2021/01/25 04:53:41;;;;;;;30.70;18.83;;;0.80;92.00;;;;;;4407385;32;20159;-65
2021/01/25 04:56:08;;;;;;;32.57;19.53;;;0.80;92.00;;;;;;4406217;32;20202;-63
2021/01/25 04:58:36;;;;;;;35.13;20.93;;;0.80;92.00;;;;;;4405011;32;20203;-65
2021/01/25 05:01:02;;;;;;;32.67;19.33;;;0.70;92.20;;;;;;4402286;32;20584;-63
2021/01/25 05:03:30;;;;;;;31.77;19.97;;;0.60;92.30;;;;;;4405335;32;20219;-63
2021/01/25 05:05:56;;;;;;;34.10;20.30;;;0.50;92.50;;;;;;4405678;32;20234;-64
2021/01/25 05:08:23;;;;;;;33.53;20.60;;;0.50;92.60;;;;;;4405833;32;20196;-65
2021/01/25 05:10:49;;;;;;;33.37;20.73;;;0.40;92.70;;;;;;4402988;32;20617;-63
2021/01/25 05:13:22;;;;;;;32.67;19.53;;;0.40;92.70;;;;;;4398712;32;20177;-63
2021/01/25 05:15:51;;;;;;;35.40;20.97;;;0.30;92.70;;;;;;4405479;32;20212;-64
2021/01/25 05:18:21;;;;;;;32.00;20.30;;;0.20;92.80;;;;;;4405889;32;20213;-63
2021/01/25 05:20:53;;;;;;;33.97;20.97;;;0.20;92.80;;;;;;4405117;32;20309;-64
2021/01/25 05:23:20;;;;;;;32.23;22.07;;;0.20;93.00;;;;;;4405948;32;20163;-65
2021/01/25 05:25:46;;;;;;;31.17;21.07;;;0.10;93.10;;;;;;4397304;32;20296;-65
2021/01/25 05:28:17;;;;;;;34.03;21.97;;;0.10;93.30;;;;;;4405496;32;20284;-62
2021/01/25 05:30:44;;;;;;;33.57;21.60;;;0.00;93.30;;;;;;4404647;32;20164;-62
2021/01/25 05:33:11;;;;;;;32.60;21.20;;;0.10;93.50;;;;;;4405882;32;20167;-64
2021/01/25 05:35:38;;;;;;;36.20;21.93;;;0.10;93.50;;;;;;4402901;32;20318;-64
2021/01/25 05:38:07;;;;;;;40.23;23.07;;;0.20;93.60;;;;;;4397616;32;20182;-64
2021/01/25 05:40:40;;;;;;;33.83;21.53;;;0.20;93.70;;;;;;4404587;32;20220;-63
2021/01/25 05:43:14;;;;;;;34.00;21.30;;;0.20;93.60;;;;;;4404940;32;20216;-63
2021/01/25 05:45:41;;;;;;;32.87;20.90;;;0.30;93.50;;;;;;4403889;32;20254;-63
2021/01/25 05:48:12;;;;;;;33.33;21.47;;;0.30;93.30;;;;;;4405018;32;20156;-63
2021/01/25 05:50:40;;;;;;;32.03;21.33;;;0.30;93.30;;;;;;4403196;32;20215;-64
2021/01/25 05:53:08;;;;;;;35.37;22.17;;;0.30;93.20;;;;;;4405370;32;20537;-63
2021/01/25 05:55:35;;;;;;;35.27;22.97;;;0.30;93.20;;;;;;4406384;32;20216;-64
2021/01/25 05:58:03;;;;;;;37.33;21.33;;;0.30;93.20;;;;;;4406837;32;20219;-63
2021/01/25 06:00:31;;;;;;;36.17;22.20;;;0.30;93.20;;;;;;4404815;32;20175;-63
2021/01/25 06:02:57;;;;;;;38.03;23.23;;;0.30;93.20;;;;;;4400954;32;20354;-63
2021/01/25 06:05:34;;;;;;;38.67;23.50;;;0.20;93.20;;;;;;4398369;32;20172;-62
2021/01/25 06:08:06;;;;;;;38.07;22.57;;;0.20;93.30;;;;;;4403574;32;20215;-64
2021/01/25 06:10:40;;;;;;;37.70;23.37;;;0.20;93.30;;;;;;4406570;32;20203;-64
2021/01/25 06:13:14;;;;;;;42.27;25.57;;;0.10;93.50;;;;;;4397914;32;20505;-64
2021/01/25 06:15:46;;;;;;;45.50;27.53;;;0.00;93.80;;;;;;4404357;32;20211;-63
2021/01/25 06:18:15;;;;;;;44.53;26.10;;;-0.10;94.20;;;;;;4402438;32;20215;-63
2021/01/25 06:20:42;;;;;;;42.87;26.70;;;-0.10;94.20;;;;;;4401225;32;20215;-63
2021/01/25 06:23:10;;;;;;;40.27;26.53;;;-0.20;94.10;;;;;;4402092;32;20540;-63
2021/01/25 06:25:38;;;;;;;38.97;25.20;;;-0.20;94.40;;;;;;4404971;32;20285;-64
2021/01/25 06:28:05;;;;;;;40.97;26.47;;;-0.20;94.10;;;;;;4403822;32;20607;-64
2021/01/25 06:30:31;;;;;;;39.77;25.30;;;-0.30;94.20;;;;;;4403546;32;20222;-63
2021/01/25 06:32:59;;;;;;;45.17;27.37;;;-0.30;94.20;;;;;;4403912;32;20633;-63
2021/01/25 06:35:31;;;;;;;45.07;28.30;;;-0.30;94.30;;;;;;4404591;32;20224;-65
2021/01/25 06:37:58;;;;;;;43.97;27.70;;;-0.30;94.30;;;;;;4403271;32;20164;-63
2021/01/25 06:40:26;;;;;;;44.27;26.93;;;-0.30;94.30;;;;;;4403573;32;20223;-62
2021/01/25 06:42:54;;;;;;;42.63;26.63;;;-0.40;94.30;;;;;;4404757;32;20174;-64
2021/01/25 06:45:24;;;;;;;43.10;27.03;;;-0.40;94.30;;;;;;4404877;32;20160;-65
2021/01/25 06:47:52;;;;;;;45.30;26.73;;;-0.40;94.40;;;;;;4403754;32;20504;-62
2021/01/25 06:50:19;;;;;;;42.77;25.90;;;-0.40;94.40;;;;;;4404291;32;20207;-62
2021/01/25 06:52:50;;;;;;;47.10;27.67;;;-0.50;94.40;;;;;;4402980;32;20177;-63
2021/01/25 06:55:17;;;;;;;44.50;26.30;;;-0.50;94.60;;;;;;4404119;32;20173;-63
2021/01/25 06:57:47;;;;;;;46.30;26.77;;;-0.50;94.50;;;;;;4401392;32;20511;-63
2021/01/25 07:00:19;;;;;;;42.47;26.87;;;-0.50;94.60;;;;;;4404752;32;20160;-63
2021/01/25 07:02:55;;;;;;;44.43;28.93;;;-0.60;94.60;;;;;;4404554;32;20201;-64
2021/01/25 07:05:25;;;;;;;44.47;26.77;;;-0.60;94.50;;;;;;4405153;32;20210;-63
2021/01/25 07:07:55;;;;;;;45.10;27.83;;;-0.60;94.50;;;;;;4406164;32;20192;-64
2021/01/25 07:10:21;;;;;;;46.20;27.07;;;-0.50;94.60;;;;;;4403458;32;20229;-63
2021/01/25 07:12:47;;;;;;;44.37;27.67;;;-0.60;94.50;;;;;;4402447;32;20260;-64
2021/01/25 07:15:16;;;;;;;54.03;31.13;;;-0.60;94.50;;;;;;4403320;32;20207;-64
2021/01/25 07:17:43;;;;;;;51.53;30.77;;;-0.60;94.50;;;;;;4400680;32;20720;-66
2021/01/25 07:20:11;;;;;;;45.93;28.17;;;-0.60;94.70;;;;;;4399563;32;20164;-63
2021/01/25 07:22:39;;;;;;;47.67;28.97;;;-0.60;94.70;;;;;;4401204;32;20226;-64
2021/01/25 07:25:07;;;;;;;43.83;28.03;;;-0.60;94.70;;;;;;4393805;32;20587;-65
2021/01/25 07:27:34;;;;;;;48.90;29.17;;;-0.60;94.70;;;;;;4398924;32;20294;-63
2021/01/25 07:30:01;;;;;;;46.70;28.80;;;-0.60;94.70;;;;;;4400453;32;20557;-64
2021/01/25 07:32:28;;;;;;;52.50;29.53;;;-0.60;94.70;;;;;;4396683;32;20329;-64
2021/01/25 07:34:56;;;;;;;49.07;29.27;;;-0.70;94.80;;;;;;4399467;32;20580;-64
2021/01/25 07:37:22;;;;;;;48.37;30.43;;;-0.70;94.90;;;;;;4398819;32;20202;-65
2021/01/25 07:39:49;;;;;;;47.20;28.97;;;-0.70;94.80;;;;;;4393475;32;20271;-65
2021/01/25 07:42:15;;;;;;;49.70;28.70;;;-0.70;94.80;;;;;;4397912;32;20183;-65
2021/01/25 07:44:43;;;;;;;50.83;30.60;;;-0.70;94.80;;;;;;4398332;32;20598;-66
2021/01/25 07:47:09;;;;;;;51.07;28.63;;;-0.60;94.80;;;;;;4396204;32;20328;-63
2021/01/25 07:49:37;;;;;;;48.87;29.23;;;-0.70;94.80;;;;;;4393793;32;20251;-63
2021/01/25 07:52:03;;;;;;;46.83;29.73;;;-0.60;94.80;;;;;;4400961;32;20163;-64
2021/01/25 07:54:30;;;;;;;48.07;28.73;;;-0.60;94.90;;;;;;4406748;32;20300;-66
2021/01/25 07:56:59;;;;;;;48.63;29.20;;;-0.60;94.90;;;;;;4400641;32;20156;-65
2021/01/25 07:59:33;;;;;;;53.65;32.42;;;-0.60;94.90;;;;;;4399996;32;20117;-64
2021/01/25 08:02:02;;;;;;;49.10;28.97;;;-0.50;95.00;;;;;;4403168;32;20171;-65
2021/01/25 08:04:31;;;;;;;48.10;29.20;;;-0.50;95.00;;;;;;4406099;32;20184;-64
2021/01/25 08:07:03;;;;;;;44.13;27.63;;;-0.50;95.00;;;;;;4402248;32;20247;-65
2021/01/25 08:09:33;;;;;;;43.67;29.20;;;-0.50;95.00;;;;;;4402437;32;20160;-63
2021/01/25 08:12:02;;;;;;;48.40;29.60;;;-0.50;95.10;;;;;;4404557;32;20223;-64
2021/01/25 08:14:38;;;;;;;45.10;28.20;;;-0.40;95.10;;;;;;4406503;32;20214;-64
2021/01/25 08:17:15;;;;;;;49.97;28.87;;;-0.40;95.40;;;;;;4398149;32;20924;-62
2021/01/25 08:19:46;;;;;;;45.33;28.17;;;-0.40;95.10;;;;;;4394346;32;20655;-65
2021/01/25 08:22:19;;;;;;;46.43;29.23;;;-0.40;95.10;;;;;;4398567;32;20231;-64
2021/01/25 08:25:17;;;;;;;43.83;28.53;;;-0.40;95.20;;;;;;4400855;32;20219;-64
2021/01/25 08:28:03;;;;;;;48.60;28.73;;;-0.30;95.30;;;;;;4390683;32;20260;-64
2021/01/25 08:30:40;;;;;;;46.20;28.10;;;-0.30;95.40;;;;;;4397348;32;20208;-65
2021/01/25 08:33:10;;;;;;;50.77;30.27;;;-0.30;95.40;;;;;;4396067;32;20175;-65
2021/01/25 08:35:40;;;;;;;48.73;29.00;;;-0.20;95.60;;;;;;4399475;32;20164;-64
2021/01/25 08:38:09;;;;;;;47.37;27.73;;;-0.10;95.60;;;;;;4396919;32;20559;-63
2021/01/25 08:40:44;;;;;;;48.13;28.70;;;0.00;95.70;;;;;;4400750;32;20652;-65
2021/01/25 08:43:27;;;;;;;46.00;28.03;;;0.00;95.70;;;;;;4396645;32;20220;-65
2021/01/25 08:46:12;;;;;;;44.87;27.93;;;0.10;95.60;;;;;;4395601;32;20160;-64
2021/01/25 08:48:41;;;;;;;47.77;29.90;;;0.10;95.70;;;;;;4395742;32;20257;-65
2021/01/25 08:51:14;;;;;;;49.17;29.87;;;0.10;95.70;;;;;;4394955;32;20496;-65
2021/01/25 08:53:46;;;;;;;46.27;29.10;;;0.20;95.70;;;;;;4395452;32;20219;-65
2021/01/25 08:56:18;;;;;;;51.17;30.37;;;0.30;95.70;;;;;;4395540;32;20159;-63
2021/01/25 08:58:45;;;;;;;51.50;30.43;;;0.30;95.80;;;;;;4396672;32;20170;-64
2021/01/25 09:01:20;;;;;;;50.73;31.47;;;0.30;95.90;;;;;;4393966;32;20226;-64
2021/01/25 09:04:00;;;;;;;56.93;31.87;;;0.40;96.00;;;;;;4395263;32;20159;-64
2021/01/25 09:06:31;;;;;;;60.40;35.03;;;0.40;96.10;;;;;;4397209;32;20164;-65
2021/01/25 09:08:57;;;;;;;59.73;32.47;;;0.50;96.20;;;;;;4396597;32;20174;-64
2021/01/25 09:11:23;;;;;;;53.13;32.30;;;0.50;96.20;;;;;;4396430;32;20167;-64
2021/01/25 09:13:50;;;;;;;56.30;33.80;;;0.60;96.10;;;;;;4400503;32;20226;-64
2021/01/25 09:16:17;;;;;;;52.60;31.77;;;0.70;96.00;;;;;;4399175;32;20951;-66
2021/01/25 09:18:43;;;;;;;47.17;30.37;;;0.80;96.00;;;;;;4398505;32;20179;-65
2021/01/25 09:21:09;;;;;;;49.20;29.50;;;0.90;96.00;;;;;;4399320;32;20219;-63
2021/01/25 09:23:36;;;;;;;47.47;30.07;;;0.90;95.90;;;;;;4392696;32;20267;-63
2021/01/25 09:26:03;;;;;;;46.50;28.57;;;1.00;95.90;;;;;;4395090;32;20167;-64
2021/01/25 09:28:29;;;;;;;45.13;28.93;;;1.00;95.90;;;;;;4395202;32;20158;-64
2021/01/25 09:30:56;;;;;;;43.80;27.37;;;1.20;95.90;;;;;;4399720;32;20156;-64
2021/01/25 09:33:23;;;;;;;44.30;27.70;;;1.30;95.70;;;;;;4396201;32;20745;-64
2021/01/25 09:35:50;;;;;;;47.73;27.97;;;1.30;95.60;;;;;;4395939;32;20167;-64
2021/01/25 09:38:16;;;;;;;47.70;27.43;;;1.40;95.60;;;;;;4391296;32;20164;-63
2021/01/25 09:40:44;;;;;;;44.33;27.27;;;1.40;95.60;;;;;;4401902;32;20164;-64
2021/01/25 09:43:10;;;;;;;40.27;26.90;;;1.40;95.40;;;;;;4396673;32;20674;-64
2021/01/25 09:45:37;;;;;;;39.87;25.07;;;1.50;95.10;;;;;;4401621;32;20205;-62
2021/01/25 09:48:06;;;;;;;37.70;24.97;;;1.60;94.80;;;;;;4397794;32;20215;-66
2021/01/25 09:50:33;;;;;;;41.53;25.47;;;1.60;94.40;;;;;;4392710;32;20187;-63
2021/01/25 09:53:00;;;;;;;43.07;25.97;;;1.70;94.00;;;;;;4398502;32;20190;-64
2021/01/25 09:56:19;;;;;;;37.60;23.97;;;1.70;93.70;;;;;;4398954;32;20160;-63
2021/01/25 09:58:54;;;;;;;34.30;21.90;;;1.80;93.40;;;;;;4395678;32;20258;-64
2021/01/25 10:01:27;;;;;;;35.60;21.10;;;1.90;93.10;;;;;;4396521;32;20172;-64
2021/01/25 10:03:54;;;;;;;29.87;19.60;;;2.00;92.40;;;;;;4398657;32;20194;-64
2021/01/25 10:06:21;;;;;;;27.07;19.00;;;2.00;92.30;;;;;;4392539;32;20187;-65
2021/01/25 10:08:57;;;;;;;33.83;20.30;;;2.10;92.20;;;;;;4393432;32;20212;-65
2021/01/25 10:11:27;;;;;;;29.93;17.47;;;2.20;91.90;;;;;;4395999;32;20605;-65
2021/01/25 10:13:54;;;;;;;25.17;16.10;;;2.20;91.50;;;;;;4393144;32;20233;-65
2021/01/25 10:16:22;;;;;;;21.10;14.90;;;2.30;91.60;;;;;;4398473;32;20612;-64
2021/01/25 10:18:49;;;;;;;25.73;15.17;;;2.30;91.20;;;;;;4398215;32;20276;-64
2021/01/25 10:21:17;;;;;;;21.53;13.70;;;2.40;91.20;;;;;;4400159;32;20796;-65
2021/01/25 10:23:44;;;;;;;22.53;13.70;;;2.40;90.80;;;;;;4398402;32;20609;-65
2021/01/25 10:26:11;;;;;;;22.90;12.53;;;2.50;91.00;;;;;;4396319;32;20164;-65
2021/01/25 10:28:40;;;;;;;17.33;11.20;;;2.60;90.70;;;;;;4394816;32;20182;-65
2021/01/25 10:31:06;;;;;;;17.80;11.50;;;2.70;90.40;;;;;;4398328;32;20252;-65
2021/01/25 10:33:33;;;;;;;15.17;9.23;;;2.70;90.10;;;;;;4394962;32;20605;-63
2021/01/25 10:35:59;;;;;;;15.70;8.93;;;2.80;88.90;;;;;;4395410;32;20179;-65
2021/01/25 10:38:26;;;;;;;13.70;9.47;;;2.90;88.10;;;;;;4397957;32;20159;-65
2021/01/25 10:40:54;;;;;;;14.63;8.63;;;2.90;88.20;;;;;;4394565;32;20261;-65
2021/01/25 10:43:25;;;;;;;14.03;8.87;;;2.90;88.10;;;;;;4396162;32;20160;-64
2021/01/25 10:45:58;;;;;;;15.00;9.07;;;3.00;87.90;;;;;;4396415;32;20211;-66
2021/01/25 10:48:25;;;;;;;13.00;8.93;;;3.10;87.40;;;;;;4392868;32;20180;-64
2021/01/25 10:50:51;;;;;;;14.30;9.20;;;3.10;87.20;;;;;;4394251;32;20168;-64
2021/01/25 10:53:18;;;;;;;14.27;9.37;;;3.10;87.20;;;;;;4399136;32;20212;-64
2021/01/25 10:55:45;;;;;;;14.77;8.90;;;3.20;87.60;;;;;;4394112;32;20164;-64
2021/01/25 10:58:31;;;;;;;11.47;7.73;;;3.30;86.00;;;;;;4397831;32;20500;-66
2021/01/25 11:00:57;;;;;;;12.60;8.33;;;3.60;85.20;;;;;;4399786;32;20158;-65
2021/01/25 11:03:24;;;;;;;12.80;8.50;;;4.00;84.40;;;;;;4392940;32;20681;-64
2021/01/25 11:05:50;;;;;;;11.43;7.63;;;4.20;81.50;;;;;;4398279;32;20611;-65
2021/01/25 11:08:17;;;;;;;15.17;8.27;;;4.10;80.60;;;;;;4398412;32;20219;-65
2021/01/25 11:10:43;;;;;;;13.63;8.73;;;3.90;81.50;;;;;;4397550;32;20578;-65
2021/01/25 11:13:09;;;;;;;14.47;9.90;;;3.80;82.80;;;;;;4395647;32;20213;-65
2021/01/25 11:15:37;;;;;;;16.50;9.57;;;3.80;83.40;;;;;;4399108;32;20208;-64
2021/01/25 11:18:03;;;;;;;14.70;8.90;;;3.90;84.00;;;;;;4399640;32;20187;-65
2021/01/25 11:20:30;;;;;;;13.23;8.73;;;4.30;83.70;;;;;;4395550;32;20176;-65
2021/01/25 11:22:56;;;;;;;14.77;9.67;;;4.70;80.60;;;;;;4401172;32;20235;-65
2021/01/25 11:25:25;;;;;;;11.37;9.23;;;4.70;78.90;;;;;;4398212;32;20531;-66
2021/01/25 11:27:52;;;;;;;17.57;9.80;;;4.60;79.80;;;;;;4394626;32;20297;-65
2021/01/25 11:30:21;;;;;;;16.40;9.73;;;4.50;80.90;;;;;;4397895;32;20543;-66
2021/01/25 11:32:51;;;;;;;13.50;9.47;;;4.40;81.90;;;;;;4398326;32;20538;-65
2021/01/25 11:35:19;;;;;;;17.87;9.90;;;4.30;80.40;;;;;;4398591;32;20735;-65
2021/01/25 11:37:46;;;;;;;21.30;10.60;;;4.30;81.30;;;;;;4396469;32;20167;-65
2021/01/25 11:40:13;;;;;;;20.70;13.17;;;4.20;81.90;;;;;;4397576;32;20279;-65
2021/01/25 11:42:42;;;;;;;17.07;13.00;;;4.20;83.60;;;;;;4400998;32;20177;-65
2021/01/25 11:45:09;;;;;;;19.07;12.77;;;4.10;84.20;;;;;;4399576;32;20269;-65
2021/01/25 11:47:36;;;;;;;20.40;12.00;;;4.10;84.40;;;;;;4397506;32;20164;-64
2021/01/25 11:50:05;;;;;;;18.30;11.90;;;4.10;83.90;;;;;;4398082;32;20193;-65
2021/01/25 11:52:32;;;;;;;16.47;12.13;;;4.20;83.00;;;;;;4400082;32;20236;-65
2021/01/25 11:54:58;;;;;;;15.77;10.93;;;4.20;83.40;;;;;;4401386;32;20260;-65
2021/01/25 11:57:24;;;;;;;19.70;12.53;;;4.20;83.20;;;;;;4396835;32;20230;-65
2021/01/25 11:59:54;;;;;;;19.80;11.47;;;4.20;83.70;;;;;;4393951;32;20164;-66
2021/01/25 12:02:22;;;;;;;15.53;10.73;;;4.20;83.20;;;;;;4392174;32;20219;-66
2021/01/25 12:04:50;;;;;;;15.10;10.00;;;4.30;83.50;;;;;;4394641;32;20176;-66
2021/01/25 12:07:17;;;;;;;14.57;8.53;;;4.30;83.40;;;;;;4394719;32;20153;-65
2021/01/25 12:09:43;;;;;;;12.37;9.17;;;4.30;82.30;;;;;;4397617;32;20179;-65
2021/01/25 12:12:10;;;;;;;15.43;9.43;;;4.30;82.20;;;;;;4398692;32;20293;-66
2021/01/25 12:14:37;;;;;;;13.60;8.30;;;4.40;82.50;;;;;;4385601;32;20183;-66
2021/01/25 12:17:03;;;;;;;15.40;8.33;;;4.40;82.80;;;;;;4382698;32;20218;-65
2021/01/25 12:19:30;;;;;;;14.93;9.13;;;4.30;82.00;;;;;;4382699;32;20609;-65
2021/01/25 12:21:56;;;;;;;13.17;8.87;;;4.30;82.60;;;;;;4384556;32;20211;-66
2021/01/25 12:24:24;;;;;;;16.90;9.87;;;4.40;83.00;;;;;;4381695;32;20184;-64
2021/01/25 12:26:50;;;;;;;15.93;10.23;;;4.40;83.10;;;;;;4377796;32;20557;-65
2021/01/25 12:29:17;;;;;;;14.07;9.23;;;4.40;83.10;;;;;;4380977;32;20619;-65
2021/01/25 12:31:43;;;;;;;13.97;9.13;;;4.40;83.00;;;;;;4382665;32;20287;-65
2021/01/25 12:34:10;;;;;;;13.80;8.87;;;4.40;83.30;;;;;;4381417;32;20600;-67
2021/01/25 12:36:37;;;;;;;11.40;8.93;;;4.40;83.60;;;;;;4378202;32;20210;-65
2021/01/25 12:39:04;;;;;;;12.80;9.13;;;4.40;83.20;;;;;;4380878;32;20174;-66
2021/01/25 12:41:31;;;;;;;12.37;8.57;;;4.50;83.30;;;;;;4381114;32;20274;-64